sensor_id;sensor_type;location;lat;lon;timestamp;P1;durP1;ratioP1;P2;durP2;ratioP2
5959;SDS011;3006;50.956;7.002;2022-07-12T00:01:28;18.50;;;12.20;;
5959;SDS011;3006;50.956;7.002;2022-07-12T00:03:57;15.80;;;12.77;;
5959;SDS011;3006;50.956;7.002;2022-07-12T00:06:25;13.93;;;12.43;;
5959;SDS011;3006;50.956;7.002;2022-07-12T00:08:54;14.17;;;12.70;;
5959;SDS011;3006;50.956;7.002;2022-07-12T00:11:22;18.60;;;13.70;;
5959;SDS011;3006;50.956;7.002;2022-07-12T00:13:51;14.33;;;12.90;;
5959;SDS011;3006;50.956;7.002;2022-07-12T00:16:19;15.10;;;13.53;;
5959;SDS011;3006;50.956;7.002;2022-07-12T00:18:49;14.80;;;13.27;;
5959;SDS011;3006;50.956;7.002;2022-07-12T00:21:19;16.17;;;13.53;;
5959;SDS011;3006;50.956;7.002;2022-07-12T00:23:48;15.83;;;13.97;;
5959;SDS011;3006;50.956;7.002;2022-07-12T00:26:16;15.57;;;13.70;;
5959;SDS011;3006;50.956;7.002;2022-07-12T00:28:45;16.13;;;13.23;;
5959;SDS011;3006;50.956;7.002;2022-07-12T00:31:15;16.10;;;13.50;;
5959;SDS011;3006;50.956;7.002;2022-07-12T00:33:43;16.83;;;13.70;;
5959;SDS011;3006;50.956;7.002;2022-07-12T00:36:12;15.13;;;13.63;;
5959;SDS011;3006;50.956;7.002;2022-07-12T00:38:40;16.83;;;13.87;;
5959;SDS011;3006;50.956;7.002;2022-07-12T00:41:09;16.00;;;14.30;;
5959;SDS011;3006;50.956;7.002;2022-07-12T00:43:37;17.00;;;14.40;;
5959;SDS011;3006;50.956;7.002;2022-07-12T00:46:05;16.03;;;14.30;;
5959;SDS011;3006;50.956;7.002;2022-07-12T00:48:35;15.80;;;13.30;;
5959;SDS011;3006;50.956;7.002;2022-07-12T00:51:04;15.03;;;13.43;;
5959;SDS011;3006;50.956;7.002;2022-07-12T00:53:32;16.23;;;13.80;;
5959;SDS011;3006;50.956;7.002;2022-07-12T00:56:03;19.43;;;14.30;;
5959;SDS011;3006;50.956;7.002;2022-07-12T00:58:31;17.70;;;14.50;;
5959;SDS011;3006;50.956;7.002;2022-07-12T01:01:00;16.73;;;14.87;;
5959;SDS011;3006;50.956;7.002;2022-07-12T01:03:28;16.57;;;14.33;;
5959;SDS011;3006;50.956;7.002;2022-07-12T01:05:58;16.60;;;14.80;;
5959;SDS011;3006;50.956;7.002;2022-07-12T01:08:26;20.10;;;14.93;;
5959;SDS011;3006;50.956;7.002;2022-07-12T01:10:57;15.57;;;13.87;;
5959;SDS011;3006;50.956;7.002;2022-07-12T01:13:28;17.83;;;13.70;;
5959;SDS011;3006;50.956;7.002;2022-07-12T01:15:56;20.10;;;14.53;;
5959;SDS011;3006;50.956;7.002;2022-07-12T01:18:25;18.37;;;15.37;;
5959;SDS011;3006;50.956;7.002;2022-07-12T01:20:55;21.27;;;15.20;;
5959;SDS011;3006;50.956;7.002;2022-07-12T01:23:27;17.30;;;14.50;;
5959;SDS011;3006;50.956;7.002;2022-07-12T01:25:56;16.67;;;14.93;;
5959;SDS011;3006;50.956;7.002;2022-07-12T01:28:28;21.23;;;15.27;;
5959;SDS011;3006;50.956;7.002;2022-07-12T01:30:56;20.67;;;16.47;;
5959;SDS011;3006;50.956;7.002;2022-07-12T01:33:28;16.17;;;13.53;;
5959;SDS011;3006;50.956;7.002;2022-07-12T01:35:57;16.77;;;14.97;;
5959;SDS011;3006;50.956;7.002;2022-07-12T01:38:25;18.33;;;15.90;;
5959;SDS011;3006;50.956;7.002;2022-07-12T01:40:54;19.30;;;16.50;;
5959;SDS011;3006;50.956;7.002;2022-07-12T01:43:23;16.80;;;15.00;;
5959;SDS011;3006;50.956;7.002;2022-07-12T01:45:51;32.53;;;16.33;;
5959;SDS011;3006;50.956;7.002;2022-07-12T01:48:20;16.10;;;14.47;;
5959;SDS011;3006;50.956;7.002;2022-07-12T01:50:48;17.83;;;15.53;;
5959;SDS011;3006;50.956;7.002;2022-07-12T01:53:17;16.53;;;14.80;;
5959;SDS011;3006;50.956;7.002;2022-07-12T01:55:45;18.50;;;15.17;;
5959;SDS011;3006;50.956;7.002;2022-07-12T01:58:15;18.60;;;14.73;;
5959;SDS011;3006;50.956;7.002;2022-07-12T02:00:43;15.13;;;13.53;;
5959;SDS011;3006;50.956;7.002;2022-07-12T02:03:17;15.83;;;14.20;;
5959;SDS011;3006;50.956;7.002;2022-07-12T02:05:46;17.40;;;13.77;;
5959;SDS011;3006;50.956;7.002;2022-07-12T02:08:14;18.13;;;13.93;;
5959;SDS011;3006;50.956;7.002;2022-07-12T02:10:42;14.97;;;13.43;;
5959;SDS011;3006;50.956;7.002;2022-07-12T02:13:16;18.63;;;13.97;;
5959;SDS011;3006;50.956;7.002;2022-07-12T02:15:44;16.00;;;14.30;;
5959;SDS011;3006;50.956;7.002;2022-07-12T02:18:12;15.93;;;14.33;;
5959;SDS011;3006;50.956;7.002;2022-07-12T02:20:42;15.80;;;14.23;;
5959;SDS011;3006;50.956;7.002;2022-07-12T02:23:10;15.57;;;13.90;;
5959;SDS011;3006;50.956;7.002;2022-07-12T02:25:38;14.53;;;13.07;;
5959;SDS011;3006;50.956;7.002;2022-07-12T02:28:09;15.43;;;13.80;;
5959;SDS011;3006;50.956;7.002;2022-07-12T02:30:39;15.93;;;14.10;;
5959;SDS011;3006;50.956;7.002;2022-07-12T02:33:18;16.17;;;14.57;;
5959;SDS011;3006;50.956;7.002;2022-07-12T02:35:46;18.03;;;14.80;;
5959;SDS011;3006;50.956;7.002;2022-07-12T02:38:14;16.27;;;14.57;;
5959;SDS011;3006;50.956;7.002;2022-07-12T02:40:42;15.57;;;14.00;;
5959;SDS011;3006;50.956;7.002;2022-07-12T02:43:25;16.50;;;14.80;;
5959;SDS011;3006;50.956;7.002;2022-07-12T02:46:03;17.47;;;15.70;;
5959;SDS011;3006;50.956;7.002;2022-07-12T02:48:36;17.77;;;15.87;;
5959;SDS011;3006;50.956;7.002;2022-07-12T02:51:05;16.37;;;14.77;;
5959;SDS011;3006;50.956;7.002;2022-07-12T02:53:37;17.40;;;15.60;;
5959;SDS011;3006;50.956;7.002;2022-07-12T02:56:08;17.03;;;14.60;;
5959;SDS011;3006;50.956;7.002;2022-07-12T02:58:37;18.73;;;15.43;;
5959;SDS011;3006;50.956;7.002;2022-07-12T03:01:07;16.10;;;14.50;;
5959;SDS011;3006;50.956;7.002;2022-07-12T03:03:37;18.23;;;16.03;;
5959;SDS011;3006;50.956;7.002;2022-07-12T03:06:05;16.50;;;14.70;;
5959;SDS011;3006;50.956;7.002;2022-07-12T03:08:33;16.17;;;14.57;;
5959;SDS011;3006;50.956;7.002;2022-07-12T03:11:01;17.40;;;15.53;;
5959;SDS011;3006;50.956;7.002;2022-07-12T03:13:29;18.13;;;16.10;;
5959;SDS011;3006;50.956;7.002;2022-07-12T03:15:57;16.77;;;15.10;;
5959;SDS011;3006;50.956;7.002;2022-07-12T03:18:27;15.90;;;14.30;;
5959;SDS011;3006;50.956;7.002;2022-07-12T03:20:55;17.83;;;15.93;;
5959;SDS011;3006;50.956;7.002;2022-07-12T03:23:26;19.53;;;15.77;;
5959;SDS011;3006;50.956;7.002;2022-07-12T03:25:54;20.10;;;15.97;;
5959;SDS011;3006;50.956;7.002;2022-07-12T03:28:22;18.07;;;15.87;;
5959;SDS011;3006;50.956;7.002;2022-07-12T03:30:52;17.60;;;15.57;;
5959;SDS011;3006;50.956;7.002;2022-07-12T03:33:20;21.23;;;14.13;;
5959;SDS011;3006;50.956;7.002;2022-07-12T03:35:49;18.83;;;15.87;;
5959;SDS011;3006;50.956;7.002;2022-07-12T03:38:19;19.83;;;15.07;;
5959;SDS011;3006;50.956;7.002;2022-07-12T03:40:47;16.60;;;14.90;;
5959;SDS011;3006;50.956;7.002;2022-07-12T03:43:15;16.43;;;14.70;;
5959;SDS011;3006;50.956;7.002;2022-07-12T03:45:43;17.63;;;15.30;;
5959;SDS011;3006;50.956;7.002;2022-07-12T03:48:15;17.80;;;14.67;;
5959;SDS011;3006;50.956;7.002;2022-07-12T03:50:43;15.90;;;14.27;;
5959;SDS011;3006;50.956;7.002;2022-07-12T03:53:13;15.43;;;13.93;;
5959;SDS011;3006;50.956;7.002;2022-07-12T03:55:41;16.50;;;14.80;;
5959;SDS011;3006;50.956;7.002;2022-07-12T03:58:09;15.10;;;13.70;;
5959;SDS011;3006;50.956;7.002;2022-07-12T04:00:37;14.80;;;13.37;;
5959;SDS011;3006;50.956;7.002;2022-07-12T04:03:10;14.90;;;13.40;;
5959;SDS011;3006;50.956;7.002;2022-07-12T04:05:38;14.73;;;13.07;;
5959;SDS011;3006;50.956;7.002;2022-07-12T04:08:07;14.70;;;13.20;;
5959;SDS011;3006;50.956;7.002;2022-07-12T04:10:36;13.80;;;12.40;;
5959;SDS011;3006;50.956;7.002;2022-07-12T04:13:06;13.47;;;12.17;;
5959;SDS011;3006;50.956;7.002;2022-07-12T04:15:34;14.23;;;12.73;;
5959;SDS011;3006;50.956;7.002;2022-07-12T04:18:05;15.60;;;13.70;;
5959;SDS011;3006;50.956;7.002;2022-07-12T04:20:33;14.60;;;13.20;;
5959;SDS011;3006;50.956;7.002;2022-07-12T04:23:02;15.13;;;13.67;;
5959;SDS011;3006;50.956;7.002;2022-07-12T04:25:30;14.63;;;13.13;;
5959;SDS011;3006;50.956;7.002;2022-07-12T04:27:59;14.30;;;12.60;;
5959;SDS011;3006;50.956;7.002;2022-07-12T04:30:27;14.23;;;12.83;;
5959;SDS011;3006;50.956;7.002;2022-07-12T04:32:56;13.70;;;12.40;;
5959;SDS011;3006;50.956;7.002;2022-07-12T04:35:24;15.40;;;13.20;;
5959;SDS011;3006;50.956;7.002;2022-07-12T04:37:52;15.60;;;13.30;;
5959;SDS011;3006;50.956;7.002;2022-07-12T04:40:21;13.43;;;12.13;;
5959;SDS011;3006;50.956;7.002;2022-07-12T04:42:49;14.40;;;11.50;;
5959;SDS011;3006;50.956;7.002;2022-07-12T04:45:19;14.13;;;12.63;;
5959;SDS011;3006;50.956;7.002;2022-07-12T04:47:47;13.93;;;12.50;;
5959;SDS011;3006;50.956;7.002;2022-07-12T04:50:15;14.00;;;12.60;;
5959;SDS011;3006;50.956;7.002;2022-07-12T04:52:43;14.63;;;13.20;;
5959;SDS011;3006;50.956;7.002;2022-07-12T04:55:11;14.27;;;12.80;;
5959;SDS011;3006;50.956;7.002;2022-07-12T04:57:39;15.83;;;14.27;;
5959;SDS011;3006;50.956;7.002;2022-07-12T05:00:08;16.03;;;13.47;;
5959;SDS011;3006;50.956;7.002;2022-07-12T05:02:38;15.03;;;13.63;;
5959;SDS011;3006;50.956;7.002;2022-07-12T05:05:06;15.87;;;14.27;;
5959;SDS011;3006;50.956;7.002;2022-07-12T05:07:35;15.40;;;13.80;;
5959;SDS011;3006;50.956;7.002;2022-07-12T05:10:03;16.07;;;14.47;;
5959;SDS011;3006;50.956;7.002;2022-07-12T05:12:32;16.40;;;14.80;;
5959;SDS011;3006;50.956;7.002;2022-07-12T05:15:01;18.93;;;15.43;;
5959;SDS011;3006;50.956;7.002;2022-07-12T05:17:30;17.03;;;15.23;;
5959;SDS011;3006;50.956;7.002;2022-07-12T05:19:59;18.30;;;16.40;;
5959;SDS011;3006;50.956;7.002;2022-07-12T05:22:27;18.73;;;16.73;;
5959;SDS011;3006;50.956;7.002;2022-07-12T05:24:55;19.60;;;17.30;;
5959;SDS011;3006;50.956;7.002;2022-07-12T05:27:24;22.67;;;16.97;;
5959;SDS011;3006;50.956;7.002;2022-07-12T05:29:52;20.57;;;18.47;;
5959;SDS011;3006;50.956;7.002;2022-07-12T05:32:20;21.90;;;18.90;;
5959;SDS011;3006;50.956;7.002;2022-07-12T05:34:50;20.93;;;18.83;;
5959;SDS011;3006;50.956;7.002;2022-07-12T05:37:19;19.70;;;17.70;;
5959;SDS011;3006;50.956;7.002;2022-07-12T05:39:49;21.60;;;19.10;;
5959;SDS011;3006;50.956;7.002;2022-07-12T05:42:18;21.27;;;19.00;;
5959;SDS011;3006;50.956;7.002;2022-07-12T05:44:46;20.20;;;18.10;;
5959;SDS011;3006;50.956;7.002;2022-07-12T05:47:14;20.67;;;18.50;;
5959;SDS011;3006;50.956;7.002;2022-07-12T05:49:42;20.60;;;18.50;;
5959;SDS011;3006;50.956;7.002;2022-07-12T05:52:10;22.37;;;19.37;;
5959;SDS011;3006;50.956;7.002;2022-07-12T05:54:57;19.30;;;17.30;;
5959;SDS011;3006;50.956;7.002;2022-07-12T05:57:25;21.00;;;18.90;;
5959;SDS011;3006;50.956;7.002;2022-07-12T05:59:53;18.80;;;16.90;;
5959;SDS011;3006;50.956;7.002;2022-07-12T06:02:21;22.00;;;18.20;;
5959;SDS011;3006;50.956;7.002;2022-07-12T06:04:50;19.47;;;17.47;;
5959;SDS011;3006;50.956;7.002;2022-07-12T06:07:18;18.60;;;16.60;;
5959;SDS011;3006;50.956;7.002;2022-07-12T06:09:46;18.90;;;16.67;;
5959;SDS011;3006;50.956;7.002;2022-07-12T06:12:15;20.77;;;17.40;;
5959;SDS011;3006;50.956;7.002;2022-07-12T06:14:44;20.60;;;17.80;;
5959;SDS011;3006;50.956;7.002;2022-07-12T06:17:12;19.80;;;17.37;;
5959;SDS011;3006;50.956;7.002;2022-07-12T06:19:40;20.20;;;17.10;;
5959;SDS011;3006;50.956;7.002;2022-07-12T06:22:08;18.40;;;16.57;;
5959;SDS011;3006;50.956;7.002;2022-07-12T06:24:36;19.53;;;17.00;;
5959;SDS011;3006;50.956;7.002;2022-07-12T06:27:04;19.40;;;17.40;;
5959;SDS011;3006;50.956;7.002;2022-07-12T06:29:34;19.80;;;16.30;;
5959;SDS011;3006;50.956;7.002;2022-07-12T06:32:02;21.10;;;17.60;;
5959;SDS011;3006;50.956;7.002;2022-07-12T06:34:30;20.40;;;18.40;;
5959;SDS011;3006;50.956;7.002;2022-07-12T06:36:59;27.03;;;16.50;;
5959;SDS011;3006;50.956;7.002;2022-07-12T06:39:27;18.73;;;16.70;;
5959;SDS011;3006;50.956;7.002;2022-07-12T06:41:55;22.83;;;17.47;;
5959;SDS011;3006;50.956;7.002;2022-07-12T06:44:23;19.60;;;17.50;;
5959;SDS011;3006;50.956;7.002;2022-07-12T06:46:52;18.63;;;16.77;;
5959;SDS011;3006;50.956;7.002;2022-07-12T06:49:20;19.20;;;17.20;;
5959;SDS011;3006;50.956;7.002;2022-07-12T06:51:48;18.20;;;16.37;;
5959;SDS011;3006;50.956;7.002;2022-07-12T06:54:17;19.60;;;17.60;;
5959;SDS011;3006;50.956;7.002;2022-07-12T06:56:45;20.03;;;17.80;;
5959;SDS011;3006;50.956;7.002;2022-07-12T06:59:13;19.37;;;17.30;;
5959;SDS011;3006;50.956;7.002;2022-07-12T07:01:42;21.30;;;16.80;;
5959;SDS011;3006;50.956;7.002;2022-07-12T07:04:11;21.20;;;18.30;;
5959;SDS011;3006;50.956;7.002;2022-07-12T07:06:39;20.87;;;16.27;;
5959;SDS011;3006;50.956;7.002;2022-07-12T07:09:07;18.70;;;16.33;;
5959;SDS011;3006;50.956;7.002;2022-07-12T07:11:36;19.17;;;16.60;;
5959;SDS011;3006;50.956;7.002;2022-07-12T07:14:04;19.30;;;16.40;;
5959;SDS011;3006;50.956;7.002;2022-07-12T07:16:32;21.27;;;15.80;;
5959;SDS011;3006;50.956;7.002;2022-07-12T07:19:01;22.77;;;14.93;;
5959;SDS011;3006;50.956;7.002;2022-07-12T07:21:30;17.30;;;14.97;;
5959;SDS011;3006;50.956;7.002;2022-07-12T07:23:59;16.57;;;14.80;;
5959;SDS011;3006;50.956;7.002;2022-07-12T07:26:27;18.07;;;16.20;;
5959;SDS011;3006;50.956;7.002;2022-07-12T07:28:55;18.43;;;16.53;;
5959;SDS011;3006;50.956;7.002;2022-07-12T07:31:40;15.77;;;14.20;;
5959;SDS011;3006;50.956;7.002;2022-07-12T07:34:08;16.10;;;12.83;;
5959;SDS011;3006;50.956;7.002;2022-07-12T07:36:39;14.50;;;12.60;;
5959;SDS011;3006;50.956;7.002;2022-07-12T07:39:07;15.20;;;13.03;;
5959;SDS011;3006;50.956;7.002;2022-07-12T07:41:36;12.13;;;10.83;;
5959;SDS011;3006;50.956;7.002;2022-07-12T07:44:04;12.53;;;11.33;;
5959;SDS011;3006;50.956;7.002;2022-07-12T07:46:32;13.53;;;12.00;;
5959;SDS011;3006;50.956;7.002;2022-07-12T07:49:00;13.20;;;11.80;;
5959;SDS011;3006;50.956;7.002;2022-07-12T07:51:28;15.87;;;12.13;;
5959;SDS011;3006;50.956;7.002;2022-07-12T07:53:58;14.90;;;10.27;;
5959;SDS011;3006;50.956;7.002;2022-07-12T07:56:26;12.00;;;10.70;;
5959;SDS011;3006;50.956;7.002;2022-07-12T07:58:54;11.97;;;10.70;;
5959;SDS011;3006;50.956;7.002;2022-07-12T08:01:22;10.63;;;9.50;;
5959;SDS011;3006;50.956;7.002;2022-07-12T08:04:09;17.23;;;10.33;;
5959;SDS011;3006;50.956;7.002;2022-07-12T08:06:37;12.73;;;10.60;;
5959;SDS011;3006;50.956;7.002;2022-07-12T08:09:11;18.20;;;11.50;;
5959;SDS011;3006;50.956;7.002;2022-07-12T08:11:40;10.90;;;9.77;;
5959;SDS011;3006;50.956;7.002;2022-07-12T08:14:09;10.60;;;9.43;;
5959;SDS011;3006;50.956;7.002;2022-07-12T08:16:38;12.13;;;10.50;;
5959;SDS011;3006;50.956;7.002;2022-07-12T08:19:06;12.27;;;9.80;;
5959;SDS011;3006;50.956;7.002;2022-07-12T08:21:34;11.40;;;8.63;;
5959;SDS011;3006;50.956;7.002;2022-07-12T08:24:02;9.80;;;8.90;;
5959;SDS011;3006;50.956;7.002;2022-07-12T08:26:32;9.93;;;8.53;;
5959;SDS011;3006;50.956;7.002;2022-07-12T08:29:00;10.13;;;8.00;;
5959;SDS011;3006;50.956;7.002;2022-07-12T08:31:29;12.43;;;8.53;;
5959;SDS011;3006;50.956;7.002;2022-07-12T08:33:57;9.60;;;8.50;;
5959;SDS011;3006;50.956;7.002;2022-07-12T08:36:25;15.07;;;8.97;;
5959;SDS011;3006;50.956;7.002;2022-07-12T08:38:59;10.80;;;9.10;;
5959;SDS011;3006;50.956;7.002;2022-07-12T08:41:27;15.13;;;8.73;;
5959;SDS011;3006;50.956;7.002;2022-07-12T08:43:57;13.50;;;8.90;;
5959;SDS011;3006;50.956;7.002;2022-07-12T08:46:25;10.30;;;8.13;;
5959;SDS011;3006;50.956;7.002;2022-07-12T08:48:53;11.40;;;8.00;;
5959;SDS011;3006;50.956;7.002;2022-07-12T08:51:21;8.50;;;7.60;;
5959;SDS011;3006;50.956;7.002;2022-07-12T08:54:04;10.47;;;8.13;;
5959;SDS011;3006;50.956;7.002;2022-07-12T08:56:34;11.00;;;7.33;;
5959;SDS011;3006;50.956;7.002;2022-07-12T08:59:09;10.63;;;6.00;;
5959;SDS011;3006;50.956;7.002;2022-07-12T09:01:43;7.63;;;6.40;;
5959;SDS011;3006;50.956;7.002;2022-07-12T09:04:14;9.10;;;6.97;;
5959;SDS011;3006;50.956;7.002;2022-07-12T09:06:43;11.07;;;7.53;;
5959;SDS011;3006;50.956;7.002;2022-07-12T09:09:12;9.17;;;5.53;;
5959;SDS011;3006;50.956;7.002;2022-07-12T09:11:53;8.97;;;8.00;;
5959;SDS011;3006;50.956;7.002;2022-07-12T09:14:23;7.23;;;6.53;;
5959;SDS011;3006;50.956;7.002;2022-07-12T09:16:59;22.10;;;12.53;;
5959;SDS011;3006;50.956;7.002;2022-07-12T09:19:29;7.70;;;6.97;;
5959;SDS011;3006;50.956;7.002;2022-07-12T09:21:58;14.20;;;9.90;;
5959;SDS011;3006;50.956;7.002;2022-07-12T09:24:26;7.37;;;6.10;;
5959;SDS011;3006;50.956;7.002;2022-07-12T09:26:57;6.43;;;5.83;;
5959;SDS011;3006;50.956;7.002;2022-07-12T09:29:29;6.30;;;5.70;;
5959;SDS011;3006;50.956;7.002;2022-07-12T09:31:59;8.10;;;5.63;;
5959;SDS011;3006;50.956;7.002;2022-07-12T09:34:55;6.20;;;5.57;;
5959;SDS011;3006;50.956;7.002;2022-07-12T09:37:41;7.47;;;6.27;;
5959;SDS011;3006;50.956;7.002;2022-07-12T09:40:09;4.70;;;4.30;;
5959;SDS011;3006;50.956;7.002;2022-07-12T09:42:39;6.80;;;6.20;;
5959;SDS011;3006;50.956;7.002;2022-07-12T09:45:10;7.27;;;6.07;;
5959;SDS011;3006;50.956;7.002;2022-07-12T09:47:38;5.63;;;4.27;;
5959;SDS011;3006;50.956;7.002;2022-07-12T09:50:06;6.40;;;5.80;;
5959;SDS011;3006;50.956;7.002;2022-07-12T09:52:36;5.83;;;5.33;;
5959;SDS011;3006;50.956;7.002;2022-07-12T09:55:07;5.67;;;4.23;;
5959;SDS011;3006;50.956;7.002;2022-07-12T09:57:39;9.20;;;5.40;;
5959;SDS011;3006;50.956;7.002;2022-07-12T10:00:17;5.23;;;4.73;;
5959;SDS011;3006;50.956;7.002;2022-07-12T10:02:46;4.90;;;4.50;;
5959;SDS011;3006;50.956;7.002;2022-07-12T10:05:17;7.07;;;4.30;;
5959;SDS011;3006;50.956;7.002;2022-07-12T10:07:46;5.30;;;4.60;;
5959;SDS011;3006;50.956;7.002;2022-07-12T10:10:15;5.67;;;4.60;;
5959;SDS011;3006;50.956;7.002;2022-07-12T10:12:44;4.13;;;3.30;;
5959;SDS011;3006;50.956;7.002;2022-07-12T10:15:14;4.43;;;4.03;;
5959;SDS011;3006;50.956;7.002;2022-07-12T10:17:51;4.90;;;3.90;;
5959;SDS011;3006;50.956;7.002;2022-07-12T10:20:23;8.13;;;4.30;;
5959;SDS011;3006;50.956;7.002;2022-07-12T10:22:53;5.20;;;4.63;;
5959;SDS011;3006;50.956;7.002;2022-07-12T10:25:29;4.83;;;3.90;;
5959;SDS011;3006;50.956;7.002;2022-07-12T10:27:59;4.43;;;4.03;;
5959;SDS011;3006;50.956;7.002;2022-07-12T10:30:28;4.90;;;4.47;;
5959;SDS011;3006;50.956;7.002;2022-07-12T10:32:58;4.20;;;3.90;;
5959;SDS011;3006;50.956;7.002;2022-07-12T10:35:27;3.63;;;3.33;;
5959;SDS011;3006;50.956;7.002;2022-07-12T10:38:16;7.93;;;3.80;;
5959;SDS011;3006;50.956;7.002;2022-07-12T10:40:46;4.97;;;4.47;;
5959;SDS011;3006;50.956;7.002;2022-07-12T10:43:19;5.83;;;5.03;;
5959;SDS011;3006;50.956;7.002;2022-07-12T10:46:18;8.50;;;4.40;;
5959;SDS011;3006;50.956;7.002;2022-07-12T10:48:53;5.77;;;3.90;;
5959;SDS011;3006;50.956;7.002;2022-07-12T10:54:42;4.77;;;3.67;;
5959;SDS011;3006;50.956;7.002;2022-07-12T10:57:16;4.63;;;4.20;;
5959;SDS011;3006;50.956;7.002;2022-07-12T11:00:06;5.93;;;4.60;;
5959;SDS011;3006;50.956;7.002;2022-07-12T11:02:35;4.50;;;3.70;;
5959;SDS011;3006;50.956;7.002;2022-07-12T11:05:05;5.57;;;3.33;;
5959;SDS011;3006;50.956;7.002;2022-07-12T11:07:34;4.47;;;4.10;;
5959;SDS011;3006;50.956;7.002;2022-07-12T11:10:03;4.83;;;3.60;;
5959;SDS011;3006;50.956;7.002;2022-07-12T11:12:33;4.43;;;3.50;;
5959;SDS011;3006;50.956;7.002;2022-07-12T11:15:01;5.33;;;3.47;;
5959;SDS011;3006;50.956;7.002;2022-07-12T11:17:32;6.13;;;2.70;;
5959;SDS011;3006;50.956;7.002;2022-07-12T11:20:08;6.93;;;4.00;;
5959;SDS011;3006;50.956;7.002;2022-07-12T11:22:39;8.70;;;3.53;;
5959;SDS011;3006;50.956;7.002;2022-07-12T11:25:09;3.87;;;3.20;;
5959;SDS011;3006;50.956;7.002;2022-07-12T11:27:39;9.03;;;4.00;;
5959;SDS011;3006;50.956;7.002;2022-07-12T11:30:08;4.20;;;2.90;;
5959;SDS011;3006;50.956;7.002;2022-07-12T11:32:37;3.50;;;3.20;;
5959;SDS011;3006;50.956;7.002;2022-07-12T11:35:20;3.30;;;3.00;;
5959;SDS011;3006;50.956;7.002;2022-07-12T11:37:50;5.03;;;4.00;;
5959;SDS011;3006;50.956;7.002;2022-07-12T11:40:23;3.90;;;3.13;;
5959;SDS011;3006;50.956;7.002;2022-07-12T11:42:55;4.00;;;3.67;;
5959;SDS011;3006;50.956;7.002;2022-07-12T11:45:25;3.90;;;2.73;;
5959;SDS011;3006;50.956;7.002;2022-07-12T11:47:54;2.53;;;2.33;;
5959;SDS011;3006;50.956;7.002;2022-07-12T11:50:26;7.60;;;2.70;;
5959;SDS011;3006;50.956;7.002;2022-07-12T11:53:00;3.20;;;2.83;;
5959;SDS011;3006;50.956;7.002;2022-07-12T11:55:28;4.00;;;2.60;;
5959;SDS011;3006;50.956;7.002;2022-07-12T11:58:03;3.90;;;2.50;;
5959;SDS011;3006;50.956;7.002;2022-07-12T12:00:31;3.30;;;2.50;;
5959;SDS011;3006;50.956;7.002;2022-07-12T12:03:00;4.40;;;2.70;;
5959;SDS011;3006;50.956;7.002;2022-07-12T12:05:30;3.20;;;2.90;;
5959;SDS011;3006;50.956;7.002;2022-07-12T12:07:58;6.00;;;2.60;;
5959;SDS011;3006;50.956;7.002;2022-07-12T12:10:26;5.53;;;3.10;;
5959;SDS011;3006;50.956;7.002;2022-07-12T12:12:56;8.17;;;2.80;;
5959;SDS011;3006;50.956;7.002;2022-07-12T12:15:25;3.03;;;2.83;;
5959;SDS011;3006;50.956;7.002;2022-07-12T12:17:55;3.90;;;2.47;;
5959;SDS011;3006;50.956;7.002;2022-07-12T12:20:25;2.90;;;2.60;;
5959;SDS011;3006;50.956;7.002;2022-07-12T12:22:56;2.60;;;2.40;;
5959;SDS011;3006;50.956;7.002;2022-07-12T12:25:25;2.23;;;2.07;;
5959;SDS011;3006;50.956;7.002;2022-07-12T12:27:54;4.07;;;2.27;;
5959;SDS011;3006;50.956;7.002;2022-07-12T12:30:50;3.60;;;2.20;;
5959;SDS011;3006;50.956;7.002;2022-07-12T12:33:32;3.40;;;2.17;;
5959;SDS011;3006;50.956;7.002;2022-07-12T12:36:11;6.23;;;2.90;;
5959;SDS011;3006;50.956;7.002;2022-07-12T12:38:45;2.50;;;2.30;;
5959;SDS011;3006;50.956;7.002;2022-07-12T12:41:14;2.57;;;2.10;;
5959;SDS011;3006;50.956;7.002;2022-07-12T12:43:43;2.90;;;2.13;;
5959;SDS011;3006;50.956;7.002;2022-07-12T12:46:20;2.80;;;2.07;;
5959;SDS011;3006;50.956;7.002;2022-07-12T12:48:48;3.40;;;2.47;;
5959;SDS011;3006;50.956;7.002;2022-07-12T12:51:17;2.50;;;2.30;;
5959;SDS011;3006;50.956;7.002;2022-07-12T12:53:54;2.27;;;2.07;;
5959;SDS011;3006;50.956;7.002;2022-07-12T12:56:22;3.13;;;2.03;;
5959;SDS011;3006;50.956;7.002;2022-07-12T12:58:50;2.37;;;2.17;;
5959;SDS011;3006;50.956;7.002;2022-07-12T13:01:19;4.27;;;2.27;;
5959;SDS011;3006;50.956;7.002;2022-07-12T13:03:49;4.07;;;2.30;;
5959;SDS011;3006;50.956;7.002;2022-07-12T13:06:17;2.43;;;1.90;;
5959;SDS011;3006;50.956;7.002;2022-07-12T13:08:48;4.63;;;2.00;;
5959;SDS011;3006;50.956;7.002;2022-07-12T13:11:16;3.30;;;2.10;;
5959;SDS011;3006;50.956;7.002;2022-07-12T13:13:49;3.83;;;1.93;;
5959;SDS011;3006;50.956;7.002;2022-07-12T13:16:17;4.00;;;2.10;;
5959;SDS011;3006;50.956;7.002;2022-07-12T13:18:45;3.50;;;1.63;;
5959;SDS011;3006;50.956;7.002;2022-07-12T13:21:13;2.20;;;1.60;;
5959;SDS011;3006;50.956;7.002;2022-07-12T13:23:43;2.10;;;1.90;;
5959;SDS011;3006;50.956;7.002;2022-07-12T13:26:13;1.90;;;1.70;;
5959;SDS011;3006;50.956;7.002;2022-07-12T13:28:41;1.93;;;1.80;;
5959;SDS011;3006;50.956;7.002;2022-07-12T13:31:09;4.73;;;4.07;;
5959;SDS011;3006;50.956;7.002;2022-07-12T13:33:38;2.23;;;1.90;;
5959;SDS011;3006;50.956;7.002;2022-07-12T13:36:06;2.87;;;1.83;;
5959;SDS011;3006;50.956;7.002;2022-07-12T13:38:34;3.30;;;1.90;;
5959;SDS011;3006;50.956;7.002;2022-07-12T13:41:02;3.63;;;1.77;;
5959;SDS011;3006;50.956;7.002;2022-07-12T13:43:32;6.47;;;3.50;;
5959;SDS011;3006;50.956;7.002;2022-07-12T13:46:01;2.53;;;2.17;;
5959;SDS011;3006;50.956;7.002;2022-07-12T13:48:29;1.70;;;1.60;;
5959;SDS011;3006;50.956;7.002;2022-07-12T13:50:57;2.60;;;1.63;;
5959;SDS011;3006;50.956;7.002;2022-07-12T13:53:45;2.37;;;1.73;;
5959;SDS011;3006;50.956;7.002;2022-07-12T13:56:13;1.57;;;1.47;;
5959;SDS011;3006;50.956;7.002;2022-07-12T13:58:43;4.30;;;1.87;;
5959;SDS011;3006;50.956;7.002;2022-07-12T14:01:11;2.30;;;2.10;;
5959;SDS011;3006;50.956;7.002;2022-07-12T14:03:40;1.90;;;1.50;;
5959;SDS011;3006;50.956;7.002;2022-07-12T14:06:08;1.70;;;1.50;;
5959;SDS011;3006;50.956;7.002;2022-07-12T14:08:36;2.00;;;1.80;;
5959;SDS011;3006;50.956;7.002;2022-07-12T14:11:04;2.47;;;1.83;;
5959;SDS011;3006;50.956;7.002;2022-07-12T14:13:32;2.23;;;1.70;;
5959;SDS011;3006;50.956;7.002;2022-07-12T14:16:01;1.63;;;1.53;;
5959;SDS011;3006;50.956;7.002;2022-07-12T14:18:30;4.13;;;3.73;;
5959;SDS011;3006;50.956;7.002;2022-07-12T14:20:58;3.70;;;2.10;;
5959;SDS011;3006;50.956;7.002;2022-07-12T14:23:26;5.10;;;2.00;;
5959;SDS011;3006;50.956;7.002;2022-07-12T14:25:54;1.63;;;1.20;;
5959;SDS011;3006;50.956;7.002;2022-07-12T14:28:22;3.60;;;1.53;;
5959;SDS011;3006;50.956;7.002;2022-07-12T14:30:50;3.10;;;2.27;;
5959;SDS011;3006;50.956;7.002;2022-07-12T14:33:26;1.57;;;1.47;;
5959;SDS011;3006;50.956;7.002;2022-07-12T14:35:57;1.80;;;1.70;;
5959;SDS011;3006;50.956;7.002;2022-07-12T14:38:25;2.57;;;1.60;;
5959;SDS011;3006;50.956;7.002;2022-07-12T14:40:53;1.90;;;1.70;;
5959;SDS011;3006;50.956;7.002;2022-07-12T14:43:21;1.77;;;1.50;;
5959;SDS011;3006;50.956;7.002;2022-07-12T14:45:49;3.10;;;1.90;;
5959;SDS011;3006;50.956;7.002;2022-07-12T14:48:17;1.90;;;1.80;;
5959;SDS011;3006;50.956;7.002;2022-07-12T14:50:47;1.63;;;1.43;;
5959;SDS011;3006;50.956;7.002;2022-07-12T14:53:19;2.33;;;1.67;;
5959;SDS011;3006;50.956;7.002;2022-07-12T14:55:47;2.13;;;1.90;;
5959;SDS011;3006;50.956;7.002;2022-07-12T14:58:15;2.63;;;2.43;;
5959;SDS011;3006;50.956;7.002;2022-07-12T15:00:44;2.27;;;1.90;;
5959;SDS011;3006;50.956;7.002;2022-07-12T15:03:12;3.10;;;1.67;;
5959;SDS011;3006;50.956;7.002;2022-07-12T15:05:40;3.53;;;1.97;;
5959;SDS011;3006;50.956;7.002;2022-07-12T15:08:10;3.60;;;2.30;;
5959;SDS011;3006;50.956;7.002;2022-07-12T15:10:38;2.70;;;2.07;;
5959;SDS011;3006;50.956;7.002;2022-07-12T15:13:06;7.40;;;3.83;;
5959;SDS011;3006;50.956;7.002;2022-07-12T15:15:34;2.53;;;2.07;;
5959;SDS011;3006;50.956;7.002;2022-07-12T15:18:03;5.43;;;2.23;;
5959;SDS011;3006;50.956;7.002;2022-07-12T15:20:31;1.93;;;1.80;;